sensor_id;sensor_type;location;lat;lon;timestamp;P1;durP1;ratioP1;P2;durP2;ratioP2
74291;SDS011;62687;55.738;37.516;2023-11-19T00:02:29;94.72;;;70.15;;
74291;SDS011;62687;55.738;37.516;2023-11-19T00:06:17;96.15;;;74.13;;
74291;SDS011;62687;55.738;37.516;2023-11-19T00:10:04;91.82;;;71.40;;
74291;SDS011;62687;55.738;37.516;2023-11-19T00:13:51;95.90;;;72.88;;
74291;SDS011;62687;55.738;37.516;2023-11-19T00:17:42;91.88;;;72.43;;
74291;SDS011;62687;55.738;37.516;2023-11-19T00:21:29;99.43;;;73.88;;
74291;SDS011;62687;55.738;37.516;2023-11-19T00:25:20;92.70;;;71.07;;
74291;SDS011;62687;55.738;37.516;2023-11-19T00:29:07;90.40;;;68.00;;
74291;SDS011;62687;55.738;37.516;2023-11-19T00:32:54;93.07;;;72.95;;
74291;SDS011;62687;55.738;37.516;2023-11-19T00:36:41;95.18;;;70.18;;
74291;SDS011;62687;55.738;37.516;2023-11-19T00:40:29;87.63;;;66.97;;
74291;SDS011;62687;55.738;37.516;2023-11-19T00:44:16;86.95;;;66.82;;
74291;SDS011;62687;55.738;37.516;2023-11-19T00:48:03;96.90;;;70.65;;
74291;SDS011;62687;55.738;37.516;2023-11-19T00:51:50;97.38;;;70.20;;
74291;SDS011;62687;55.738;37.516;2023-11-19T00:55:38;89.60;;;67.40;;
74291;SDS011;62687;55.738;37.516;2023-11-19T00:59:24;93.63;;;73.63;;
74291;SDS011;62687;55.738;37.516;2023-11-19T01:03:11;94.78;;;70.90;;
74291;SDS011;62687;55.738;37.516;2023-11-19T01:06:58;89.40;;;66.72;;
74291;SDS011;62687;55.738;37.516;2023-11-19T01:10:48;96.63;;;70.15;;
74291;SDS011;62687;55.738;37.516;2023-11-19T01:14:35;99.88;;;70.00;;
74291;SDS011;62687;55.738;37.516;2023-11-19T01:18:24;100.50;;;74.40;;
74291;SDS011;62687;55.738;37.516;2023-11-19T01:22:14;94.55;;;68.57;;
74291;SDS011;62687;55.738;37.516;2023-11-19T01:26:01;97.38;;;71.47;;
74291;SDS011;62687;55.738;37.516;2023-11-19T01:29:48;95.70;;;72.75;;
74291;SDS011;62687;55.738;37.516;2023-11-19T01:33:35;94.43;;;70.35;;
74291;SDS011;62687;55.738;37.516;2023-11-19T01:37:22;90.78;;;68.30;;
74291;SDS011;62687;55.738;37.516;2023-11-19T01:41:09;82.93;;;63.85;;
74291;SDS011;62687;55.738;37.516;2023-11-19T01:45:00;103.30;;;71.35;;
74291;SDS011;62687;55.738;37.516;2023-11-19T01:48:47;95.55;;;70.55;;
74291;SDS011;62687;55.738;37.516;2023-11-19T01:52:34;102.90;;;73.88;;
74291;SDS011;62687;55.738;37.516;2023-11-19T01:56:22;98.68;;;67.65;;
74291;SDS011;62687;55.738;37.516;2023-11-19T02:00:10;93.95;;;69.75;;
74291;SDS011;62687;55.738;37.516;2023-11-19T02:03:57;90.30;;;66.18;;
74291;SDS011;62687;55.738;37.516;2023-11-19T02:07:45;98.13;;;69.75;;
74291;SDS011;62687;55.738;37.516;2023-11-19T02:11:32;101.68;;;73.85;;
74291;SDS011;62687;55.738;37.516;2023-11-19T02:15:19;95.25;;;70.68;;
74291;SDS011;62687;55.738;37.516;2023-11-19T02:19:06;96.85;;;72.75;;
74291;SDS011;62687;55.738;37.516;2023-11-19T02:22:55;105.18;;;73.07;;
74291;SDS011;62687;55.738;37.516;2023-11-19T02:26:47;106.18;;;71.85;;
74291;SDS011;62687;55.738;37.516;2023-11-19T02:30:39;93.28;;;68.00;;
74291;SDS011;62687;55.738;37.516;2023-11-19T02:34:27;100.03;;;71.85;;
74291;SDS011;62687;55.738;37.516;2023-11-19T02:38:15;99.13;;;71.97;;
74291;SDS011;62687;55.738;37.516;2023-11-19T02:42:05;118.15;;;73.82;;
74291;SDS011;62687;55.738;37.516;2023-11-19T02:45:52;99.85;;;72.22;;
74291;SDS011;62687;55.738;37.516;2023-11-19T02:49:43;103.35;;;75.60;;
74291;SDS011;62687;55.738;37.516;2023-11-19T02:53:31;105.50;;;70.80;;
74291;SDS011;62687;55.738;37.516;2023-11-19T02:57:18;96.88;;;71.93;;
74291;SDS011;62687;55.738;37.516;2023-11-19T03:01:07;94.95;;;69.18;;
74291;SDS011;62687;55.738;37.516;2023-11-19T03:04:59;97.63;;;74.55;;
74291;SDS011;62687;55.738;37.516;2023-11-19T03:08:49;88.90;;;68.53;;
74291;SDS011;62687;55.738;37.516;2023-11-19T03:12:37;106.78;;;72.80;;
74291;SDS011;62687;55.738;37.516;2023-11-19T03:16:24;106.18;;;79.60;;
74291;SDS011;62687;55.738;37.516;2023-11-19T03:20:11;108.38;;;81.72;;
74291;SDS011;62687;55.738;37.516;2023-11-19T03:23:58;99.47;;;73.50;;
74291;SDS011;62687;55.738;37.516;2023-11-19T03:27:45;102.13;;;72.15;;
74291;SDS011;62687;55.738;37.516;2023-11-19T03:31:32;96.35;;;70.15;;
74291;SDS011;62687;55.738;37.516;2023-11-19T03:35:19;101.85;;;71.95;;
74291;SDS011;62687;55.738;37.516;2023-11-19T03:38:56;102.03;;;71.85;;
74291;SDS011;62687;55.738;37.516;2023-11-19T03:42:43;98.80;;;72.68;;
74291;SDS011;62687;55.738;37.516;2023-11-19T03:46:30;92.15;;;69.25;;
74291;SDS011;62687;55.738;37.516;2023-11-19T03:50:17;98.03;;;69.95;;
74291;SDS011;62687;55.738;37.516;2023-11-19T03:54:04;103.68;;;73.13;;
74291;SDS011;62687;55.738;37.516;2023-11-19T03:57:52;105.90;;;73.88;;
74291;SDS011;62687;55.738;37.516;2023-11-19T04:01:39;98.65;;;69.70;;
74291;SDS011;62687;55.738;37.516;2023-11-19T04:05:26;97.70;;;71.53;;
74291;SDS011;62687;55.738;37.516;2023-11-19T04:09:13;98.70;;;67.10;;
74291;SDS011;62687;55.738;37.516;2023-11-19T04:13:00;98.18;;;73.03;;
74291;SDS011;62687;55.738;37.516;2023-11-19T04:16:47;85.57;;;66.93;;
74291;SDS011;62687;55.738;37.516;2023-11-19T04:20:34;96.13;;;68.10;;
74291;SDS011;62687;55.738;37.516;2023-11-19T04:24:21;102.78;;;73.68;;
74291;SDS011;62687;55.738;37.516;2023-11-19T04:28:09;97.10;;;68.90;;
74291;SDS011;62687;55.738;37.516;2023-11-19T04:31:56;77.68;;;59.88;;
74291;SDS011;62687;55.738;37.516;2023-11-19T04:35:43;83.68;;;61.50;;
74291;SDS011;62687;55.738;37.516;2023-11-19T04:39:30;100.03;;;62.80;;
74291;SDS011;62687;55.738;37.516;2023-11-19T04:43:17;86.75;;;62.72;;
74291;SDS011;62687;55.738;37.516;2023-11-19T04:47:04;93.10;;;68.20;;
74291;SDS011;62687;55.738;37.516;2023-11-19T04:50:52;93.35;;;66.80;;
74291;SDS011;62687;55.738;37.516;2023-11-19T04:54:43;105.63;;;74.45;;
74291;SDS011;62687;55.738;37.516;2023-11-19T04:58:30;103.10;;;74.22;;
74291;SDS011;62687;55.738;37.516;2023-11-19T05:02:17;87.10;;;65.50;;
74291;SDS011;62687;55.738;37.516;2023-11-19T05:06:04;90.60;;;64.72;;
74291;SDS011;62687;55.738;37.516;2023-11-19T05:09:51;82.63;;;61.55;;
74291;SDS011;62687;55.738;37.516;2023-11-19T05:13:38;83.90;;;65.20;;
74291;SDS011;62687;55.738;37.516;2023-11-19T05:17:33;81.80;;;60.90;;
74291;SDS011;62687;55.738;37.516;2023-11-19T05:21:20;87.53;;;63.53;;
74291;SDS011;62687;55.738;37.516;2023-11-19T05:25:07;97.47;;;66.93;;
74291;SDS011;62687;55.738;37.516;2023-11-19T05:28:54;93.13;;;62.47;;
74291;SDS011;62687;55.738;37.516;2023-11-19T05:32:41;90.93;;;60.42;;
74291;SDS011;62687;55.738;37.516;2023-11-19T05:36:28;89.47;;;61.50;;
74291;SDS011;62687;55.738;37.516;2023-11-19T05:40:15;99.28;;;64.85;;
74291;SDS011;62687;55.738;37.516;2023-11-19T05:44:02;91.35;;;63.45;;
74291;SDS011;62687;55.738;37.516;2023-11-19T05:47:38;94.40;;;63.65;;
74291;SDS011;62687;55.738;37.516;2023-11-19T05:51:25;93.43;;;65.30;;
74291;SDS011;62687;55.738;37.516;2023-11-19T05:55:17;87.72;;;62.78;;
74291;SDS011;62687;55.738;37.516;2023-11-19T05:59:04;102.22;;;65.70;;
74291;SDS011;62687;55.738;37.516;2023-11-19T06:02:52;85.35;;;60.55;;
74291;SDS011;62687;55.738;37.516;2023-11-19T06:06:39;97.68;;;65.40;;
74291;SDS011;62687;55.738;37.516;2023-11-19T06:10:26;85.00;;;62.03;;
74291;SDS011;62687;55.738;37.516;2023-11-19T06:14:13;86.28;;;58.80;;
74291;SDS011;62687;55.738;37.516;2023-11-19T06:17:59;101.20;;;61.22;;
74291;SDS011;62687;55.738;37.516;2023-11-19T06:21:46;100.05;;;66.55;;
74291;SDS011;62687;55.738;37.516;2023-11-19T06:25:33;104.30;;;69.65;;
74291;SDS011;62687;55.738;37.516;2023-11-19T06:29:21;90.57;;;65.93;;
74291;SDS011;62687;55.738;37.516;2023-11-19T06:33:08;80.20;;;59.00;;
74291;SDS011;62687;55.738;37.516;2023-11-19T06:36:55;94.85;;;63.67;;
74291;SDS011;62687;55.738;37.516;2023-11-19T06:40:43;81.55;;;62.53;;
74291;SDS011;62687;55.738;37.516;2023-11-19T06:44:30;97.95;;;69.72;;
74291;SDS011;62687;55.738;37.516;2023-11-19T06:48:17;93.07;;;57.92;;
74291;SDS011;62687;55.738;37.516;2023-11-19T06:52:04;85.40;;;62.05;;
74291;SDS011;62687;55.738;37.516;2023-11-19T06:55:54;98.47;;;66.70;;
74291;SDS011;62687;55.738;37.516;2023-11-19T06:59:41;90.45;;;60.17;;
74291;SDS011;62687;55.738;37.516;2023-11-19T07:03:31;100.28;;;66.47;;
74291;SDS011;62687;55.738;37.516;2023-11-19T07:07:17;92.75;;;61.67;;
74291;SDS011;62687;55.738;37.516;2023-11-19T07:11:04;88.90;;;64.78;;
74291;SDS011;62687;55.738;37.516;2023-11-19T07:14:52;88.60;;;60.22;;
74291;SDS011;62687;55.738;37.516;2023-11-19T07:18:39;88.03;;;63.75;;
74291;SDS011;62687;55.738;37.516;2023-11-19T07:22:26;77.60;;;52.65;;
74291;SDS011;62687;55.738;37.516;2023-11-19T07:26:13;90.70;;;60.55;;
74291;SDS011;62687;55.738;37.516;2023-11-19T07:30:00;95.93;;;68.80;;
74291;SDS011;62687;55.738;37.516;2023-11-19T07:33:47;91.80;;;66.40;;
74291;SDS011;62687;55.738;37.516;2023-11-19T07:37:34;97.28;;;65.10;;
74291;SDS011;62687;55.738;37.516;2023-11-19T07:41:21;95.25;;;65.97;;
74291;SDS011;62687;55.738;37.516;2023-11-19T07:45:08;90.00;;;62.20;;
74291;SDS011;62687;55.738;37.516;2023-11-19T07:48:59;107.97;;;70.82;;
74291;SDS011;62687;55.738;37.516;2023-11-19T07:52:46;105.95;;;68.22;;
74291;SDS011;62687;55.738;37.516;2023-11-19T07:56:33;93.68;;;65.80;;
74291;SDS011;62687;55.738;37.516;2023-11-19T08:00:20;102.53;;;68.65;;
74291;SDS011;62687;55.738;37.516;2023-11-19T08:04:07;94.03;;;68.00;;
74291;SDS011;62687;55.738;37.516;2023-11-19T08:07:55;90.35;;;64.18;;
74291;SDS011;62687;55.738;37.516;2023-11-19T08:11:43;101.93;;;68.97;;
74291;SDS011;62687;55.738;37.516;2023-11-19T08:15:30;85.43;;;61.47;;
74291;SDS011;62687;55.738;37.516;2023-11-19T08:19:17;103.97;;;66.57;;
74291;SDS011;62687;55.738;37.516;2023-11-19T08:23:03;100.65;;;68.22;;
74291;SDS011;62687;55.738;37.516;2023-11-19T08:26:51;109.45;;;72.38;;
74291;SDS011;62687;55.738;37.516;2023-11-19T08:30:38;102.88;;;68.68;;
74291;SDS011;62687;55.738;37.516;2023-11-19T08:34:25;89.68;;;63.55;;
74291;SDS011;62687;55.738;37.516;2023-11-19T08:38:12;98.70;;;67.57;;
74291;SDS011;62687;55.738;37.516;2023-11-19T08:41:58;93.20;;;67.93;;
74291;SDS011;62687;55.738;37.516;2023-11-19T08:45:45;99.78;;;67.78;;
74291;SDS011;62687;55.738;37.516;2023-11-19T08:49:32;99.18;;;64.43;;
74291;SDS011;62687;55.738;37.516;2023-11-19T08:53:19;92.20;;;63.75;;
74291;SDS011;62687;55.738;37.516;2023-11-19T08:57:06;88.70;;;64.93;;
74291;SDS011;62687;55.738;37.516;2023-11-19T09:00:53;96.53;;;71.43;;
74291;SDS011;62687;55.738;37.516;2023-11-19T09:04:40;109.07;;;72.88;;
74291;SDS011;62687;55.738;37.516;2023-11-19T09:08:28;92.65;;;67.00;;
74291;SDS011;62687;55.738;37.516;2023-11-19T09:12:15;106.20;;;70.68;;
74291;SDS011;62687;55.738;37.516;2023-11-19T09:16:02;96.00;;;69.20;;
74291;SDS011;62687;55.738;37.516;2023-11-19T09:19:49;104.07;;;72.28;;
74291;SDS011;62687;55.738;37.516;2023-11-19T09:23:36;114.18;;;74.60;;
74291;SDS011;62687;55.738;37.516;2023-11-19T09:27:23;108.88;;;73.22;;
74291;SDS011;62687;55.738;37.516;2023-11-19T09:31:13;107.05;;;71.95;;
74291;SDS011;62687;55.738;37.516;2023-11-19T09:35:00;92.95;;;67.70;;
74291;SDS011;62687;55.738;37.516;2023-11-19T09:38:47;95.22;;;64.20;;
74291;SDS011;62687;55.738;37.516;2023-11-19T09:42:38;94.50;;;69.55;;
74291;SDS011;62687;55.738;37.516;2023-11-19T09:46:29;100.88;;;68.82;;
74291;SDS011;62687;55.738;37.516;2023-11-19T09:50:16;96.60;;;65.88;;
74291;SDS011;62687;55.738;37.516;2023-11-19T09:54:04;102.75;;;67.00;;
74291;SDS011;62687;55.738;37.516;2023-11-19T09:57:51;95.47;;;56.38;;
74291;SDS011;62687;55.738;37.516;2023-11-19T10:01:39;97.63;;;65.15;;
74291;SDS011;62687;55.738;37.516;2023-11-19T10:05:27;102.80;;;68.68;;
74291;SDS011;62687;55.738;37.516;2023-11-19T10:09:14;91.57;;;63.45;;
74291;SDS011;62687;55.738;37.516;2023-11-19T10:13:03;84.35;;;61.72;;
74291;SDS011;62687;55.738;37.516;2023-11-19T10:16:50;101.50;;;68.00;;
74291;SDS011;62687;55.738;37.516;2023-11-19T10:20:37;98.47;;;67.43;;
74291;SDS011;62687;55.738;37.516;2023-11-19T10:24:33;102.15;;;69.00;;
74291;SDS011;62687;55.738;37.516;2023-11-19T10:28:21;102.38;;;72.15;;
74291;SDS011;62687;55.738;37.516;2023-11-19T10:32:07;97.22;;;62.88;;
74291;SDS011;62687;55.738;37.516;2023-11-19T10:35:59;94.68;;;68.07;;
74291;SDS011;62687;55.738;37.516;2023-11-19T10:39:52;94.13;;;63.58;;
74291;SDS011;62687;55.738;37.516;2023-11-19T10:43:43;91.45;;;66.32;;
74291;SDS011;62687;55.738;37.516;2023-11-19T10:47:30;105.38;;;71.38;;
74291;SDS011;62687;55.738;37.516;2023-11-19T10:51:19;100.15;;;68.22;;
74291;SDS011;62687;55.738;37.516;2023-11-19T10:55:06;105.72;;;70.50;;
74291;SDS011;62687;55.738;37.516;2023-11-19T10:58:55;92.47;;;63.55;;
74291;SDS011;62687;55.738;37.516;2023-11-19T11:02:42;100.88;;;67.57;;
74291;SDS011;62687;55.738;37.516;2023-11-19T11:06:33;104.40;;;73.28;;
74291;SDS011;62687;55.738;37.516;2023-11-19T11:10:20;99.38;;;68.60;;
74291;SDS011;62687;55.738;37.516;2023-11-19T11:14:11;97.20;;;63.17;;
74291;SDS011;62687;55.738;37.516;2023-11-19T11:18:00;98.75;;;66.70;;
74291;SDS011;62687;55.738;37.516;2023-11-19T11:21:52;102.57;;;68.13;;
74291;SDS011;62687;55.738;37.516;2023-11-19T11:25:54;98.13;;;65.63;;
74291;SDS011;62687;55.738;37.516;2023-11-19T11:29:55;101.18;;;66.18;;
74291;SDS011;62687;55.738;37.516;2023-11-19T11:37:54;93.40;;;66.03;;
74291;SDS011;62687;55.738;37.516;2023-11-19T11:41:44;88.13;;;53.90;;
74291;SDS011;62687;55.738;37.516;2023-11-19T11:45:38;91.43;;;63.90;;
74291;SDS011;62687;55.738;37.516;2023-11-19T11:49:25;94.05;;;66.07;;
74291;SDS011;62687;55.738;37.516;2023-11-19T11:53:13;97.53;;;64.07;;
74291;SDS011;62687;55.738;37.516;2023-11-19T11:57:21;108.60;;;71.22;;
74291;SDS011;62687;55.738;37.516;2023-11-19T12:01:07;101.82;;;66.85;;
74291;SDS011;62687;55.738;37.516;2023-11-19T12:04:54;112.22;;;71.22;;
74291;SDS011;62687;55.738;37.516;2023-11-19T12:08:41;110.85;;;74.80;;
74291;SDS011;62687;55.738;37.516;2023-11-19T12:12:29;94.68;;;66.18;;
74291;SDS011;62687;55.738;37.516;2023-11-19T12:16:19;96.95;;;66.57;;
74291;SDS011;62687;55.738;37.516;2023-11-19T12:20:07;100.85;;;69.28;;
74291;SDS011;62687;55.738;37.516;2023-11-19T12:23:54;129.35;;;80.72;;
74291;SDS011;62687;55.738;37.516;2023-11-19T12:27:46;132.98;;;78.03;;
74291;SDS011;62687;55.738;37.516;2023-11-19T12:31:34;112.47;;;73.40;;
74291;SDS011;62687;55.738;37.516;2023-11-19T12:35:21;104.88;;;69.35;;
74291;SDS011;62687;55.738;37.516;2023-11-19T12:39:09;108.57;;;71.60;;
74291;SDS011;62687;55.738;37.516;2023-11-19T12:42:56;103.68;;;71.68;;
74291;SDS011;62687;55.738;37.516;2023-11-19T12:46:44;101.85;;;72.70;;
74291;SDS011;62687;55.738;37.516;2023-11-19T12:54:37;103.57;;;67.00;;
74291;SDS011;62687;55.738;37.516;2023-11-19T12:58:28;96.35;;;67.32;;
74291;SDS011;62687;55.738;37.516;2023-11-19T13:02:15;95.43;;;58.58;;
74291;SDS011;62687;55.738;37.516;2023-11-19T13:06:06;104.45;;;68.20;;
74291;SDS011;62687;55.738;37.516;2023-11-19T13:10:01;92.32;;;63.80;;
74291;SDS011;62687;55.738;37.516;2023-11-19T13:13:57;103.75;;;66.75;;
74291;SDS011;62687;55.738;37.516;2023-11-19T13:17:44;94.75;;;62.35;;
74291;SDS011;62687;55.738;37.516;2023-11-19T13:21:34;106.03;;;69.28;;
74291;SDS011;62687;55.738;37.516;2023-11-19T13:25:21;104.72;;;70.28;;
74291;SDS011;62687;55.738;37.516;2023-11-19T13:29:08;93.90;;;66.45;;
74291;SDS011;62687;55.738;37.516;2023-11-19T13:32:56;107.80;;;70.97;;
74291;SDS011;62687;55.738;37.516;2023-11-19T13:36:43;96.25;;;57.25;;
74291;SDS011;62687;55.738;37.516;2023-11-19T13:40:30;95.13;;;67.40;;
74291;SDS011;62687;55.738;37.516;2023-11-19T13:44:16;99.32;;;67.22;;
74291;SDS011;62687;55.738;37.516;2023-11-19T13:48:04;99.82;;;63.08;;
74291;SDS011;62687;55.738;37.516;2023-11-19T13:51:51;102.75;;;63.35;;
74291;SDS011;62687;55.738;37.516;2023-11-19T13:55:39;96.05;;;62.97;;
74291;SDS011;62687;55.738;37.516;2023-11-19T13:59:28;108.55;;;71.32;;
74291;SDS011;62687;55.738;37.516;2023-11-19T14:03:15;89.47;;;62.05;;
74291;SDS011;62687;55.738;37.516;2023-11-19T14:07:02;104.32;;;67.40;;
74291;SDS011;62687;55.738;37.516;2023-11-19T14:10:54;118.10;;;75.80;;
74291;SDS011;62687;55.738;37.516;2023-11-19T14:14:42;101.43;;;69.20;;
74291;SDS011;62687;55.738;37.516;2023-11-19T14:18:29;101.57;;;67.55;;
74291;SDS011;62687;55.738;37.516;2023-11-19T14:22:16;104.65;;;67.53;;
74291;SDS011;62687;55.738;37.516;2023-11-19T14:26:04;105.63;;;67.03;;
74291;SDS011;62687;55.738;37.516;2023-11-19T14:29:51;111.03;;;70.20;;
74291;SDS011;62687;55.738;37.516;2023-11-19T14:33:40;106.85;;;69.90;;
74291;SDS011;62687;55.738;37.516;2023-11-19T14:37:27;109.72;;;68.07;;
74291;SDS011;62687;55.738;37.516;2023-11-19T14:41:16;109.90;;;70.72;;
74291;SDS011;62687;55.738;37.516;2023-11-19T14:45:03;108.95;;;69.80;;
74291;SDS011;62687;55.738;37.516;2023-11-19T14:48:51;105.43;;;68.57;;
74291;SDS011;62687;55.738;37.516;2023-11-19T14:52:37;107.47;;;68.55;;
74291;SDS011;62687;55.738;37.516;2023-11-19T14:56:24;107.43;;;69.82;;
74291;SDS011;62687;55.738;37.516;2023-11-19T15:00:11;118.60;;;71.32;;
74291;SDS011;62687;55.738;37.516;2023-11-19T15:03:58;104.05;;;70.18;;
74291;SDS011;62687;55.738;37.516;2023-11-19T15:07:47;105.88;;;68.00;;
74291;SDS011;62687;55.738;37.516;2023-11-19T15:11:34;107.43;;;68.75;;
74291;SDS011;62687;55.738;37.516;2023-11-19T15:15:23;110.75;;;70.63;;
74291;SDS011;62687;55.738;37.516;2023-11-19T15:19:16;115.82;;;71.32;;
74291;SDS011;62687;55.738;37.516;2023-11-19T15:23:02;112.03;;;69.82;;
74291;SDS011;62687;55.738;37.516;2023-11-19T15:26:51;110.28;;;69.68;;
74291;SDS011;62687;55.738;37.516;2023-11-19T15:30:38;120.15;;;73.68;;
74291;SDS011;62687;55.738;37.516;2023-11-19T15:34:25;120.75;;;71.50;;
74291;SDS011;62687;55.738;37.516;2023-11-19T15:38:12;111.32;;;66.53;;
74291;SDS011;62687;55.738;37.516;2023-11-19T15:41:59;108.60;;;68.82;;
74291;SDS011;62687;55.738;37.516;2023-11-19T15:45:46;122.03;;;71.25;;
74291;SDS011;62687;55.738;37.516;2023-11-19T15:49:33;115.97;;;68.68;;
74291;SDS011;62687;55.738;37.516;2023-11-19T15:53:20;115.38;;;72.70;;
74291;SDS011;62687;55.738;37.516;2023-11-19T15:57:07;122.82;;;75.90;;
74291;SDS011;62687;55.738;37.516;2023-11-19T16:00:54;124.13;;;74.15;;
74291;SDS011;62687;55.738;37.516;2023-11-19T16:04:41;116.72;;;72.25;;
74291;SDS011;62687;55.738;37.516;2023-11-19T16:08:28;120.13;;;74.55;;
74291;SDS011;62687;55.738;37.516;2023-11-19T16:12:15;119.75;;;77.50;;
74291;SDS011;62687;55.738;37.516;2023-11-19T16:16:03;116.05;;;72.57;;
74291;SDS011;62687;55.738;37.516;2023-11-19T16:19:50;117.25;;;71.72;;
74291;SDS011;62687;55.738;37.516;2023-11-19T16:23:37;111.40;;;65.40;;
74291;SDS011;62687;55.738;37.516;2023-11-19T16:27:24;114.05;;;72.32;;
74291;SDS011;62687;55.738;37.516;2023-11-19T16:31:11;112.95;;;73.25;;
74291;SDS011;62687;55.738;37.516;2023-11-19T16:34:58;122.35;;;73.30;;
74291;SDS011;62687;55.738;37.516;2023-11-19T16:38:46;121.75;;;75.50;;
74291;SDS011;62687;55.738;37.516;2023-11-19T16:42:33;124.90;;;80.88;;
74291;SDS011;62687;55.738;37.516;2023-11-19T16:46:20;115.82;;;71.72;;
74291;SDS011;62687;55.738;37.516;2023-11-19T16:50:07;122.72;;;74.80;;
74291;SDS011;62687;55.738;37.516;2023-11-19T16:53:57;126.63;;;81.45;;
74291;SDS011;62687;55.738;37.516;2023-11-19T16:57:47;122.88;;;72.63;;
74291;SDS011;62687;55.738;37.516;2023-11-19T17:01:34;120.95;;;74.28;;
74291;SDS011;62687;55.738;37.516;2023-11-19T17:05:22;124.43;;;76.05;;
74291;SDS011;62687;55.738;37.516;2023-11-19T17:09:09;115.70;;;73.07;;
74291;SDS011;62687;55.738;37.516;2023-11-19T17:12:56;127.00;;;76.70;;
74291;SDS011;62687;55.738;37.516;2023-11-19T17:16:43;131.43;;;80.70;;
74291;SDS011;62687;55.738;37.516;2023-11-19T17:20:30;124.22;;;76.07;;
74291;SDS011;62687;55.738;37.516;2023-11-19T17:24:17;129.68;;;80.32;;
74291;SDS011;62687;55.738;37.516;2023-11-19T17:28:04;126.53;;;78.50;;
74291;SDS011;62687;55.738;37.516;2023-11-19T17:31:51;125.57;;;77.68;;
74291;SDS011;62687;55.738;37.516;2023-11-19T17:35:38;123.30;;;73.78;;
74291;SDS011;62687;55.738;37.516;2023-11-19T17:39:25;127.82;;;74.57;;
74291;SDS011;62687;55.738;37.516;2023-11-19T17:43:12;122.05;;;76.40;;
74291;SDS011;62687;55.738;37.516;2023-11-19T17:46:59;129.45;;;80.40;;
74291;SDS011;62687;55.738;37.516;2023-11-19T17:50:46;134.98;;;78.18;;
74291;SDS011;62687;55.738;37.516;2023-11-19T17:54:33;118.93;;;76.40;;
74291;SDS011;62687;55.738;37.516;2023-11-19T17:58:20;124.72;;;78.40;;
74291;SDS011;62687;55.738;37.516;2023-11-19T18:02:08;141.68;;;80.65;;
74291;SDS011;62687;55.738;37.516;2023-11-19T18:05:55;126.68;;;81.35;;
74291;SDS011;62687;55.738;37.516;2023-11-19T18:09:42;131.52;;;80.28;;
74291;SDS011;62687;55.738;37.516;2023-11-19T18:13:29;131.25;;;77.65;;
74291;SDS011;62687;55.738;37.516;2023-11-19T18:17:16;131.13;;;83.95;;
74291;SDS011;62687;55.738;37.516;2023-11-19T18:21:03;120.88;;;74.78;;
74291;SDS011;62687;55.738;37.516;2023-11-19T18:24:33;116.97;;;73.43;;
74291;SDS011;62687;55.738;37.516;2023-11-19T18:28:21;118.18;;;74.70;;
74291;SDS011;62687;55.738;37.516;2023-11-19T18:32:07;123.30;;;73.85;;
74291;SDS011;62687;55.738;37.516;2023-11-19T18:35:55;123.82;;;77.05;;
74291;SDS011;62687;55.738;37.516;2023-11-19T18:39:42;122.25;;;78.05;;
74291;SDS011;62687;55.738;37.516;2023-11-19T18:43:30;125.50;;;74.78;;
74291;SDS011;62687;55.738;37.516;2023-11-19T18:47:17;132.25;;;81.38;;
74291;SDS011;62687;55.738;37.516;2023-11-19T18:51:04;139.98;;;85.30;;
74291;SDS011;62687;55.738;37.516;2023-11-19T18:54:51;114.32;;;77.30;;
74291;SDS011;62687;55.738;37.516;2023-11-19T18:58:38;112.25;;;75.05;;
74291;SDS011;62687;55.738;37.516;2023-11-19T19:02:25;126.78;;;78.07;;
74291;SDS011;62687;55.738;37.516;2023-11-19T19:06:15;131.10;;;79.63;;
74291;SDS011;62687;55.738;37.516;2023-11-19T19:10:03;134.32;;;84.68;;
74291;SDS011;62687;55.738;37.516;2023-11-19T19:13:50;122.35;;;74.25;;
74291;SDS011;62687;55.738;37.516;2023-11-19T19:17:39;128.50;;;84.32;;
74291;SDS011;62687;55.738;37.516;2023-11-19T19:21:29;124.43;;;80.55;;
74291;SDS011;62687;55.738;37.516;2023-11-19T19:25:16;123.53;;;76.68;;
74291;SDS011;62687;55.738;37.516;2023-11-19T19:29:03;133.25;;;84.32;;
74291;SDS011;62687;55.738;37.516;2023-11-19T19:32:52;130.93;;;81.47;;
74291;SDS011;62687;55.738;37.516;2023-11-19T19:36:41;116.65;;;74.70;;
74291;SDS011;62687;55.738;37.516;2023-11-19T19:40:28;118.28;;;74.30;;
74291;SDS011;62687;55.738;37.516;2023-11-19T19:44:15;129.32;;;83.10;;
74291;SDS011;62687;55.738;37.516;2023-11-19T19:48:02;127.57;;;80.07;;
74291;SDS011;62687;55.738;37.516;2023-11-19T19:51:51;127.15;;;80.32;;
74291;SDS011;62687;55.738;37.516;2023-11-19T19:55:41;139.48;;;84.20;;
74291;SDS011;62687;55.738;37.516;2023-11-19T19:59:29;124.05;;;79.55;;
74291;SDS011;62687;55.738;37.516;2023-11-19T20:03:16;124.88;;;79.15;;
74291;SDS011;62687;55.738;37.516;2023-11-19T20:07:03;126.07;;;77.60;;
74291;SDS011;62687;55.738;37.516;2023-11-19T20:10:50;118.63;;;76.72;;
74291;SDS011;62687;55.738;37.516;2023-11-19T20:14:37;122.10;;;77.60;;
74291;SDS011;62687;55.738;37.516;2023-11-19T20:18:25;143.25;;;87.68;;
74291;SDS011;62687;55.738;37.516;2023-11-19T20:22:12;130.95;;;79.22;;
74291;SDS011;62687;55.738;37.516;2023-11-19T20:26:00;132.65;;;83.80;;
74291;SDS011;62687;55.738;37.516;2023-11-19T20:29:47;132.63;;;81.65;;
74291;SDS011;62687;55.738;37.516;2023-11-19T20:33:34;142.95;;;87.32;;
74291;SDS011;62687;55.738;37.516;2023-11-19T20:37:21;133.18;;;84.82;;
74291;SDS011;62687;55.738;37.516;2023-11-19T20:41:08;137.85;;;80.25;;
74291;SDS011;62687;55.738;37.516;2023-11-19T20:44:55;134.05;;;81.68;;
74291;SDS011;62687;55.738;37.516;2023-11-19T20:48:43;140.38;;;89.22;;
74291;SDS011;62687;55.738;37.516;2023-11-19T20:52:30;146.73;;;87.72;;
74291;SDS011;62687;55.738;37.516;2023-11-19T20:56:17;154.00;;;85.35;;
74291;SDS011;62687;55.738;37.516;2023-11-19T21:00:04;137.18;;;82.53;;
74291;SDS011;62687;55.738;37.516;2023-11-19T21:03:51;133.07;;;80.18;;
74291;SDS011;62687;55.738;37.516;2023-11-19T21:07:39;149.30;;;87.55;;
74291;SDS011;62687;55.738;37.516;2023-11-19T21:11:26;146.27;;;86.35;;
74291;SDS011;62687;55.738;37.516;2023-11-19T21:15:12;149.63;;;89.80;;
74291;SDS011;62687;55.738;37.516;2023-11-19T21:19:00;147.35;;;85.82;;
74291;SDS011;62687;55.738;37.516;2023-11-19T21:22:46;141.93;;;87.78;;
74291;SDS011;62687;55.738;37.516;2023-11-19T21:26:33;147.80;;;85.65;;
74291;SDS011;62687;55.738;37.516;2023-11-19T21:30:20;145.05;;;89.18;;
74291;SDS011;62687;55.738;37.516;2023-11-19T21:34:07;149.88;;;87.20;;
74291;SDS011;62687;55.738;37.516;2023-11-19T21:37:54;125.05;;;79.15;;
74291;SDS011;62687;55.738;37.516;2023-11-19T21:41:41;141.55;;;87.05;;
74291;SDS011;62687;55.738;37.516;2023-11-19T21:45:28;143.60;;;86.90;;
74291;SDS011;62687;55.738;37.516;2023-11-19T21:49:16;136.50;;;84.78;;